createdAt,value
2018-09-27T00:01:39.217Z,68.94
2018-09-27T00:04:05.529Z,69.20
2018-09-27T00:06:31.866Z,69.39
2018-09-27T00:08:58.202Z,69.74
2018-09-27T00:11:24.515Z,70.03
2018-09-27T00:13:50.944Z,70.38
2018-09-27T00:16:17.260Z,70.70
2018-09-27T00:18:43.620Z,71.00
2018-09-27T00:21:09.960Z,71.35
2018-09-27T00:23:36.301Z,71.63
2018-09-27T00:26:02.616Z,71.93
2018-09-27T00:28:28.955Z,72.18
2018-09-27T00:30:55.291Z,72.58
2018-09-27T00:33:21.626Z,72.82
2018-09-27T00:35:47.982Z,73.10
2018-09-27T00:38:14.324Z,73.43
2018-09-27T00:40:40.659Z,73.79
2018-09-27T00:43:06.977Z,74.05
2018-09-27T00:45:33.314Z,74.43
2018-09-27T00:47:59.628Z,74.73
2018-09-27T00:50:25.970Z,75.00
2018-09-27T00:52:52.291Z,75.30
2018-09-27T00:55:18.605Z,75.64
2018-09-27T00:57:44.925Z,75.98
2018-09-27T01:00:11.237Z,76.20
2018-09-27T01:02:37.557Z,76.55
2018-09-27T01:05:03.935Z,76.83
2018-09-27T01:07:30.251Z,77.14
2018-09-27T01:09:56.592Z,77.44
2018-09-27T01:12:22.933Z,77.69
2018-09-27T01:14:49.246Z,78.03
2018-09-27T01:17:15.589Z,78.29
2018-09-27T01:19:41.929Z,78.50
2018-09-27T01:22:08.263Z,78.81
2018-09-27T01:24:34.576Z,79.03
2018-09-27T01:27:00.904Z,79.32
2018-09-27T01:29:27.218Z,79.54
2018-09-27T01:31:53.529Z,79.74
2018-09-27T01:34:19.911Z,79.93
2018-09-27T01:36:46.284Z,80.10
2018-09-27T01:39:12.614Z,80.22
2018-09-27T01:41:38.968Z,80.54
2018-09-27T01:44:05.301Z,80.74
2018-09-27T01:46:31.635Z,81.02
2018-09-27T01:48:58.056Z,81.13
2018-09-27T01:51:24.402Z,81.33
2018-09-27T01:53:50.813Z,81.43
2018-09-27T01:56:17.197Z,81.65
2018-09-27T01:58:43.509Z,81.78
2018-09-27T02:01:09.819Z,81.86
2018-09-27T02:03:36.191Z,81.96
2018-09-27T02:06:02.501Z,82.01
2018-09-27T02:08:28.839Z,82.13
2018-09-27T02:10:55.174Z,82.16
2018-09-27T02:13:21.489Z,82.31
2018-09-27T02:15:47.809Z,82.39
2018-09-27T02:18:14.121Z,82.39
2018-09-27T02:20:40.444Z,82.54
2018-09-27T02:23:06.783Z,82.57
2018-09-27T02:25:33.098Z,82.60
2018-09-27T02:27:59.438Z,82.59
2018-09-27T02:30:25.753Z,82.65
2018-09-27T02:32:52.086Z,82.75
2018-09-27T02:35:18.472Z,82.82
2018-09-27T02:37:44.856Z,82.86
2018-09-27T02:40:11.169Z,82.88
2018-09-27T02:42:37.479Z,83.01
2018-09-27T02:45:03.790Z,83.03
2018-09-27T02:47:30.100Z,83.13
2018-09-27T02:49:56.458Z,83.20
2018-09-27T02:52:22.768Z,83.34
2018-09-27T02:54:49.112Z,83.45
2018-09-27T02:57:15.437Z,83.54
2018-09-27T02:59:41.776Z,83.60
2018-09-27T03:02:08.090Z,83.70
2018-09-27T03:04:34.434Z,83.81
2018-09-27T03:07:00.776Z,84.00
2018-09-27T03:09:27.088Z,84.15
2018-09-27T03:11:53.430Z,84.18
2018-09-27T03:14:19.767Z,84.47
2018-09-27T03:16:46.090Z,84.56
2018-09-27T03:19:12.451Z,84.66
2018-09-27T03:21:38.835Z,84.80
2018-09-27T03:24:05.152Z,84.86
2018-09-27T03:26:31.470Z,85.00
2018-09-27T03:28:57.823Z,85.11
2018-09-27T03:31:24.157Z,85.14
2018-09-27T03:33:50.495Z,85.32
2018-09-27T03:36:16.813Z,85.44
2018-09-27T03:38:43.129Z,85.62
2018-09-27T03:41:09.467Z,85.82
2018-09-27T03:43:35.848Z,86.03
2018-09-27T03:46:02.187Z,86.14
2018-09-27T03:48:28.523Z,86.22
2018-09-27T03:50:54.869Z,86.28
2018-09-27T03:53:21.193Z,86.47
2018-09-27T03:55:47.515Z,86.42
2018-09-27T03:58:13.834Z,86.63
2018-09-27T04:00:40.140Z,86.84
2018-09-27T04:03:06.530Z,87.03
2018-09-27T04:05:32.804Z,87.19
2018-09-27T04:07:59.142Z,87.35
2018-09-27T04:10:25.458Z,87.61
2018-09-27T04:12:51.796Z,91.75
2018-09-27T04:15:18.144Z,100.00
2018-09-27T04:17:44.451Z,87.95
2018-09-27T04:20:10.790Z,70.31
2018-09-27T04:22:37.104Z,68.80
2018-09-27T04:25:03.475Z,70.02
2018-09-27T04:27:29.818Z,69.17
2018-09-27T04:29:56.158Z,68.73
2018-09-27T04:32:22.473Z,66.62
2018-09-27T04:34:48.813Z,64.47
2018-09-27T04:37:15.150Z,63.95
2018-09-27T04:39:41.494Z,62.86
2018-09-27T04:42:07.803Z,63.07
2018-09-27T04:44:34.109Z,63.79
2018-09-27T04:47:00.424Z,64.49
2018-09-27T04:49:26.761Z,64.85
2018-09-27T04:51:53.151Z,65.28
2018-09-27T04:54:19.437Z,65.27
2018-09-27T04:56:45.750Z,65.16
2018-09-27T04:59:12.068Z,64.44
2018-09-27T05:01:38.381Z,64.84
2018-09-27T05:04:04.718Z,65.64
2018-09-27T05:06:31.138Z,66.26
2018-09-27T05:08:57.427Z,65.71
2018-09-27T05:11:23.766Z,65.04
2018-09-27T05:13:50.074Z,64.96
2018-09-27T05:16:16.467Z,64.74
2018-09-27T05:18:42.803Z,65.03
2018-09-27T05:21:09.172Z,64.89
2018-09-27T05:23:35.518Z,64.72
2018-09-27T05:26:01.877Z,64.86
2018-09-27T05:28:28.192Z,64.96
2018-09-27T05:30:54.536Z,63.93
2018-09-27T05:33:20.863Z,65.11
2018-09-27T05:35:47.239Z,64.67
2018-09-27T05:38:13.552Z,64.47
2018-09-27T05:40:39.895Z,64.71
2018-09-27T05:43:06.241Z,63.81
2018-09-27T05:45:32.591Z,63.89
2018-09-27T05:47:58.927Z,63.71
2018-09-27T05:50:25.256Z,63.94
2018-09-27T05:52:51.606Z,63.82
2018-09-27T05:55:17.921Z,63.69
2018-09-27T05:57:44.259Z,64.06
2018-09-27T06:00:10.568Z,64.04
2018-09-27T06:02:36.909Z,63.46
2018-09-27T06:05:03.238Z,63.42
2018-09-27T06:07:29.551Z,63.26
2018-09-27T06:09:55.893Z,62.52
2018-09-27T06:12:22.232Z,62.40
2018-09-27T06:14:48.547Z,63.22
2018-09-27T06:17:14.865Z,62.02
2018-09-27T06:19:41.252Z,61.90
2018-09-27T06:22:07.522Z,61.79
2018-09-27T06:24:33.871Z,61.58
2018-09-27T06:27:00.187Z,61.63
2018-09-27T06:29:26.526Z,61.65
2018-09-27T06:31:52.942Z,61.16
2018-09-27T06:34:19.259Z,59.85
2018-09-27T06:36:45.601Z,60.78
2018-09-27T06:39:11.946Z,60.10
2018-09-27T06:41:38.289Z,59.60
2018-09-27T06:44:04.612Z,60.11
2018-09-27T06:46:30.957Z,58.84
2018-09-27T06:48:57.291Z,60.25
2018-09-27T06:51:23.688Z,61.37
2018-09-27T06:53:50.124Z,61.00
2018-09-27T06:56:16.515Z,60.18
2018-09-27T06:58:42.780Z,61.25
2018-09-27T07:01:09.118Z,59.76
2018-09-27T07:03:35.461Z,59.93
2018-09-27T07:06:01.812Z,59.56
2018-09-27T07:08:28.203Z,57.97
2018-09-27T07:10:54.451Z,57.90
2018-09-27T07:13:20.773Z,58.04
2018-09-27T07:15:47.091Z,57.31
2018-09-27T07:18:13.434Z,57.29
2018-09-27T07:20:39.756Z,57.23
2018-09-27T07:23:06.091Z,57.58
2018-09-27T07:25:32.408Z,56.62
2018-09-27T07:27:58.725Z,56.37
2018-09-27T07:30:25.115Z,55.82
2018-09-27T07:32:51.466Z,55.09
2018-09-27T07:35:17.808Z,54.34
2018-09-27T07:37:44.149Z,56.42
2018-09-27T07:40:10.475Z,55.83
2018-09-27T07:42:36.855Z,56.18
2018-09-27T07:45:03.124Z,55.81
2018-09-27T07:47:29.433Z,56.93
2018-09-27T07:49:55.776Z,55.31
2018-09-27T07:52:22.116Z,54.94
2018-09-27T07:54:48.463Z,55.29
2018-09-27T07:57:14.797Z,53.35
2018-09-27T07:59:41.157Z,51.11
2018-09-27T08:02:07.513Z,50.75
2018-09-27T08:04:33.822Z,50.78
2018-09-27T08:07:00.138Z,49.48
2018-09-27T08:09:26.453Z,47.64
2018-09-27T08:11:52.811Z,46.61
2018-09-27T08:14:19.147Z,45.35
2018-09-27T08:16:45.531Z,45.69
2018-09-27T08:19:11.877Z,47.12
2018-09-27T08:21:38.190Z,44.69
2018-09-27T08:24:04.540Z,43.76
2018-09-27T08:26:30.897Z,43.09
2018-09-27T08:28:57.186Z,42.73
2018-09-27T08:31:23.524Z,42.31
2018-09-27T08:33:49.844Z,42.70
2018-09-27T08:36:16.163Z,43.02
2018-09-27T08:38:42.548Z,43.16
2018-09-27T08:41:08.858Z,42.73
2018-09-27T08:43:35.206Z,43.61
2018-09-27T08:46:01.542Z,43.59
2018-09-27T08:48:27.898Z,44.71
2018-09-27T08:50:54.216Z,44.98
2018-09-27T08:53:20.541Z,43.77
2018-09-27T08:55:47.045Z,44.75
2018-09-27T08:58:13.206Z,42.03
2018-09-27T09:00:39.553Z,42.36
2018-09-27T09:03:05.898Z,43.83
2018-09-27T09:05:32.217Z,41.35
2018-09-27T09:07:58.555Z,42.68
2018-09-27T09:10:24.915Z,40.04
2018-09-27T09:12:51.283Z,39.23
2018-09-27T09:15:17.621Z,38.91
2018-09-27T09:17:43.943Z,37.40
2018-09-27T09:20:10.265Z,37.62
2018-09-27T09:22:36.604Z,38.84
2018-09-27T09:25:02.977Z,37.58
2018-09-27T09:27:29.309Z,37.89
2018-09-27T09:29:55.662Z,38.32
2018-09-27T09:32:21.930Z,39.07
2018-09-27T09:34:48.251Z,39.26
2018-09-27T09:37:14.597Z,39.30
2018-09-27T09:39:40.913Z,38.66
2018-09-27T09:42:07.230Z,36.98
2018-09-27T09:44:33.577Z,37.35
2018-09-27T09:46:59.889Z,37.88
2018-09-27T09:49:26.270Z,37.47
2018-09-27T09:51:52.577Z,36.47
2018-09-27T09:54:18.916Z,35.52
2018-09-27T09:56:45.255Z,35.77
2018-09-27T09:59:11.639Z,36.46
2018-09-27T10:01:37.961Z,35.53
2018-09-27T10:04:04.336Z,36.67
2018-09-27T10:06:30.656Z,34.89
2018-09-27T10:08:57.088Z,34.85
2018-09-27T10:11:23.345Z,34.24
2018-09-27T10:13:49.683Z,33.64
2018-09-27T10:16:16.007Z,34.02
2018-09-27T10:18:42.347Z,34.06
2018-09-27T10:21:08.739Z,35.33
2018-09-27T10:23:35.057Z,36.31
2018-09-27T10:26:01.374Z,36.10
2018-09-27T10:28:27.696Z,34.74
2018-09-27T10:30:54.072Z,33.34
2018-09-27T10:33:20.385Z,31.64
2018-09-27T10:35:46.698Z,32.27
2018-09-27T10:38:13.019Z,31.55
2018-09-27T10:40:39.364Z,31.76
2018-09-27T10:43:05.703Z,33.87
2018-09-27T10:45:32.075Z,35.60
2018-09-27T10:47:58.426Z,34.79
2018-09-27T10:50:24.758Z,33.11
2018-09-27T10:52:51.100Z,33.10
2018-09-27T10:55:17.436Z,34.04
2018-09-27T10:57:43.750Z,31.43
2018-09-27T11:00:10.093Z,30.68
2018-09-27T11:02:36.435Z,30.33
2018-09-27T11:05:02.752Z,32.21
2018-09-27T11:10:15.445Z,30.52
2018-09-27T11:12:41.903Z,31.80
2018-09-27T11:15:08.251Z,32.13
2018-09-27T11:17:34.599Z,31.26
2018-09-27T11:20:00.984Z,32.07
2018-09-27T11:22:27.353Z,31.81
2018-09-27T11:24:53.785Z,31.32
2018-09-27T11:27:20.111Z,31.69
2018-09-27T11:29:46.473Z,31.01
2018-09-27T11:32:12.806Z,29.79
2018-09-27T11:34:39.118Z,30.98
2018-09-27T11:37:05.433Z,31.13
2018-09-27T11:39:31.775Z,29.24
2018-09-27T11:41:58.142Z,29.68
2018-09-27T11:44:24.489Z,28.86
2018-09-27T11:46:50.819Z,29.19
2018-09-27T11:49:17.289Z,29.75
2018-09-27T11:51:43.479Z,29.86
2018-09-27T11:54:09.798Z,30.08
2018-09-27T11:56:36.144Z,28.89
2018-09-27T11:59:02.559Z,29.34
2018-09-27T12:01:28.845Z,30.22
2018-09-27T12:03:55.149Z,30.98
2018-09-27T12:06:21.498Z,31.06
2018-09-27T12:08:47.819Z,30.26
2018-09-27T12:11:14.142Z,29.55
2018-09-27T12:13:40.572Z,30.25
2018-09-27T12:16:06.938Z,29.27
2018-09-27T12:18:33.275Z,29.31
2018-09-27T12:20:59.616Z,28.24
2018-09-27T12:23:25.940Z,28.72
2018-09-27T12:25:52.279Z,28.39
2018-09-27T12:28:18.605Z,28.52
2018-09-27T12:30:44.920Z,28.67
2018-09-27T12:33:11.323Z,28.07
2018-09-27T12:35:37.659Z,28.08
2018-09-27T12:38:03.980Z,27.80
2018-09-27T12:40:30.333Z,27.68
2018-09-27T12:42:56.725Z,28.45
2018-09-27T12:45:22.993Z,28.82
2018-09-27T12:47:49.414Z,29.68
2018-09-27T12:50:15.725Z,30.03
2018-09-27T12:52:42.089Z,29.13
2018-09-27T12:55:08.381Z,28.89
2018-09-27T12:57:34.731Z,28.74
2018-09-27T13:00:01.078Z,28.94
2018-09-27T13:02:27.452Z,29.18
2018-09-27T13:04:53.760Z,30.87
2018-09-27T13:07:20.100Z,31.62
2018-09-27T13:09:46.579Z,29.86
2018-09-27T13:12:12.836Z,29.74
2018-09-27T13:14:39.165Z,29.66
2018-09-27T13:17:05.424Z,28.95
2018-09-27T13:19:31.773Z,29.50
2018-09-27T13:21:58.053Z,30.11
2018-09-27T13:24:24.409Z,31.14
2018-09-27T13:26:50.767Z,31.27
2018-09-27T13:29:17.057Z,32.70
2018-09-27T13:31:43.403Z,31.25
2018-09-27T13:34:09.757Z,30.78
2018-09-27T13:36:36.062Z,30.92
2018-09-27T13:39:02.404Z,31.03
2018-09-27T13:41:28.694Z,30.49
2018-09-27T13:43:55.077Z,28.18
2018-09-27T13:46:21.467Z,29.20
2018-09-27T13:48:47.821Z,29.87
2018-09-27T13:51:14.135Z,29.79
2018-09-27T13:53:40.550Z,30.41
2018-09-27T13:56:06.878Z,30.30
2018-09-27T13:58:33.224Z,29.62
2018-09-27T14:00:59.607Z,27.50
2018-09-27T14:03:25.871Z,27.58
2018-09-27T14:05:52.188Z,28.24
2018-09-27T14:08:18.527Z,28.97
2018-09-27T14:10:44.867Z,29.06
2018-09-27T14:13:11.301Z,29.20
2018-09-27T14:15:37.644Z,29.26
2018-09-27T14:18:03.991Z,28.83
2018-09-27T14:20:30.310Z,28.95
2018-09-27T14:22:56.703Z,28.77
2018-09-27T14:25:23.022Z,28.83
2018-09-27T14:27:49.337Z,29.15
2018-09-27T14:30:17.248Z,29.05
2018-09-27T14:32:43.569Z,29.33
2018-09-27T14:35:09.891Z,29.16
2018-09-27T14:37:36.202Z,29.18
2018-09-27T14:40:02.523Z,29.02
2018-09-27T14:42:28.933Z,30.34
2018-09-27T14:44:55.348Z,39.98
2018-09-27T14:47:21.666Z,37.33
2018-09-27T14:49:47.986Z,34.17
2018-09-27T14:52:14.302Z,32.92
2018-09-27T14:54:40.618Z,31.76
2018-09-27T14:57:06.979Z,30.79
2018-09-27T14:59:33.364Z,30.06
2018-09-27T15:02:09.437Z,30.00
2018-09-27T15:04:35.748Z,29.68
2018-09-27T15:07:02.081Z,29.51
2018-09-27T15:09:28.467Z,29.34
2018-09-27T15:11:54.756Z,29.20
2018-09-27T15:14:21.119Z,29.38
2018-09-27T15:16:47.476Z,29.46
2018-09-27T15:19:13.817Z,29.52
2018-09-27T15:21:40.157Z,29.35
2018-09-27T15:24:06.496Z,29.39
2018-09-27T15:26:32.838Z,29.45
2018-09-27T15:28:59.181Z,29.32
2018-09-27T15:31:25.521Z,29.57
2018-09-27T15:33:51.866Z,29.73
2018-09-27T15:36:18.267Z,30.04
2018-09-27T15:38:44.601Z,30.10
2018-09-27T15:41:10.942Z,37.21
2018-09-27T15:43:37.276Z,38.34
2018-09-27T15:46:03.621Z,39.07
2018-09-27T15:48:29.963Z,39.75
2018-09-27T15:50:56.303Z,38.17
2018-09-27T15:53:22.640Z,35.75
2018-09-27T15:55:48.983Z,33.74
2018-09-27T15:58:15.315Z,33.07
2018-09-27T16:00:41.668Z,32.54
2018-09-27T16:03:08.010Z,32.30
2018-09-27T16:05:34.352Z,32.19
2018-09-27T16:08:00.697Z,32.12
2018-09-27T16:10:27.044Z,32.14
2018-09-27T16:12:53.388Z,32.05
2018-09-27T16:15:19.778Z,31.96
2018-09-27T16:17:46.136Z,32.52
2018-09-27T16:20:12.436Z,33.37
2018-09-27T16:22:38.777Z,38.29
2018-09-27T16:25:05.119Z,38.29
2018-09-27T16:27:31.461Z,39.47
2018-09-27T16:29:57.806Z,40.05
2018-09-27T16:32:24.145Z,38.84
2018-09-27T16:34:50.484Z,38.05
2018-09-27T16:37:16.824Z,38.72
2018-09-27T16:39:43.172Z,39.02
2018-09-27T16:42:09.510Z,39.06
2018-09-27T16:44:35.889Z,38.73
2018-09-27T16:47:02.229Z,38.74
2018-09-27T16:49:28.573Z,38.28
2018-09-27T16:51:55.998Z,38.15
2018-09-27T16:54:22.314Z,37.67
2018-09-27T16:56:48.626Z,37.22
2018-09-27T16:59:14.946Z,38.32
2018-09-27T17:01:41.287Z,37.96
2018-09-27T17:04:07.572Z,38.21
2018-09-27T17:06:33.938Z,38.04
2018-09-27T17:09:00.260Z,37.13
2018-09-27T17:11:26.569Z,39.41
2018-09-27T17:13:52.888Z,41.17
2018-09-27T17:16:19.255Z,40.84
2018-09-27T17:18:45.613Z,41.71
2018-09-27T17:21:11.897Z,42.57
2018-09-27T17:23:38.262Z,43.52
2018-09-27T17:26:04.530Z,44.50
2018-09-27T17:28:30.858Z,45.49
2018-09-27T17:30:57.177Z,46.38
2018-09-27T17:33:23.501Z,47.22
2018-09-27T17:35:49.847Z,48.12
2018-09-27T17:38:16.167Z,49.18
2018-09-27T17:40:42.565Z,49.90
2018-09-27T17:43:08.844Z,50.78
2018-09-27T17:45:35.207Z,51.45
2018-09-27T17:48:01.529Z,52.17
2018-09-27T17:50:27.849Z,52.87
2018-09-27T17:52:54.197Z,53.62
2018-09-27T17:55:20.586Z,54.42
2018-09-27T17:57:46.905Z,55.08
2018-09-27T18:00:14.631Z,55.79
2018-09-27T18:02:40.993Z,56.50
2018-09-27T18:05:18.815Z,57.13
2018-09-27T18:07:33.824Z,57.93
2018-09-27T18:10:00.150Z,58.57
2018-09-27T18:12:26.512Z,59.23
2018-09-27T18:14:54.491Z,59.82
2018-09-27T18:17:19.637Z,60.53
2018-09-27T18:19:46.046Z,61.11
2018-09-27T18:22:12.340Z,61.75
2018-09-27T18:24:39.117Z,62.35
2018-09-27T18:27:05.829Z,62.81
2018-09-27T18:29:32.597Z,63.26
2018-09-27T18:31:59.094Z,63.95
2018-09-27T18:34:25.476Z,64.61
2018-09-27T18:36:51.775Z,65.31
2018-09-27T18:39:18.120Z,65.86
2018-09-27T18:41:44.505Z,66.53
2018-09-27T18:44:10.841Z,67.18
2018-09-27T18:46:37.208Z,67.80
2018-09-27T18:49:03.581Z,68.38
2018-09-27T18:51:29.912Z,68.86
2018-09-27T18:53:56.240Z,69.44
2018-09-27T18:56:22.559Z,70.08
2018-09-27T18:58:48.900Z,70.49
2018-09-27T19:01:15.263Z,70.93
2018-09-27T19:03:41.616Z,76.50
2018-09-27T19:06:07.941Z,76.73
2018-09-27T19:08:34.309Z,77.34
2018-09-27T19:11:00.684Z,77.86
2018-09-27T19:13:27.038Z,78.57
2018-09-27T19:15:53.817Z,79.19
2018-09-27T19:18:20.153Z,79.96
2018-09-27T19:20:46.467Z,80.68
2018-09-27T19:23:12.832Z,80.99
2018-09-27T19:25:39.191Z,81.67
2018-09-27T19:28:05.616Z,82.12
2018-09-27T19:30:32.047Z,82.54
2018-09-27T19:32:58.451Z,83.06
2018-09-27T19:35:24.821Z,83.50
2018-09-27T19:37:51.249Z,83.87
2018-09-27T19:40:17.583Z,84.33
2018-09-27T19:42:43.903Z,84.59
2018-09-27T19:45:10.222Z,84.80
2018-09-27T19:47:36.601Z,85.21
2018-09-27T19:50:03.079Z,85.81
2018-09-27T19:52:29.407Z,86.04
2018-09-27T19:54:55.758Z,86.08
2018-09-27T19:57:22.114Z,86.09
2018-09-27T19:59:48.454Z,86.02
2018-09-27T20:02:14.767Z,86.20
2018-09-27T20:04:41.135Z,86.56
2018-09-27T20:07:07.414Z,86.52
2018-09-27T20:09:33.774Z,86.47
2018-09-27T20:12:00.094Z,86.69
2018-09-27T20:14:26.410Z,86.86
2018-09-27T20:16:52.797Z,86.89
2018-09-27T20:19:19.084Z,86.96
2018-09-27T20:21:45.444Z,86.92
2018-09-27T20:24:11.771Z,87.07
2018-09-27T20:26:38.124Z,87.04
2018-09-27T20:29:04.452Z,87.22
2018-09-27T20:31:30.772Z,87.41
2018-09-27T20:33:57.127Z,87.61
2018-09-27T20:36:23.420Z,88.01
2018-09-27T20:38:49.734Z,88.08
2018-09-27T20:41:16.144Z,88.35
2018-09-27T20:43:42.514Z,88.37
2018-09-27T20:46:08.829Z,88.66
2018-09-27T20:48:35.248Z,88.78
2018-09-27T20:51:01.568Z,88.93
2018-09-27T20:53:27.926Z,89.07
2018-09-27T20:55:54.236Z,89.25
2018-09-27T20:58:20.549Z,89.40
2018-09-27T21:00:46.867Z,89.83
2018-09-27T21:03:13.207Z,90.17
2018-09-27T21:05:39.503Z,90.40
2018-09-27T21:08:05.813Z,90.39
2018-09-27T21:10:32.133Z,90.72
2018-09-27T21:12:58.454Z,90.86
2018-09-27T21:15:24.771Z,90.89
2018-09-27T21:17:51.107Z,91.04
2018-09-27T21:20:17.464Z,91.25
2018-09-27T21:22:43.773Z,91.40
2018-09-27T21:25:10.148Z,91.65
2018-09-27T21:27:36.409Z,91.82
2018-09-27T21:30:02.738Z,92.23
2018-09-27T21:32:29.113Z,92.53
2018-09-27T21:34:55.456Z,92.69
2018-09-27T21:37:21.876Z,92.93
2018-09-27T21:39:48.200Z,93.46
2018-09-27T21:42:14.527Z,93.70
2018-09-27T21:44:40.859Z,93.96
2018-09-27T21:47:07.192Z,94.20
2018-09-27T21:49:33.518Z,94.51
2018-09-27T21:51:59.850Z,94.81
2018-09-27T21:54:26.186Z,94.89
2018-09-27T21:56:52.518Z,95.03
2018-09-27T21:59:18.853Z,95.11
2018-09-27T22:01:45.184Z,95.40
2018-09-27T22:04:11.515Z,95.69
2018-09-27T22:06:37.846Z,95.76
2018-09-27T22:09:04.168Z,96.05
2018-09-27T22:11:30.490Z,96.03
2018-09-27T22:13:56.806Z,96.11
2018-09-27T22:16:23.124Z,96.19
2018-09-27T22:18:49.479Z,96.22
2018-09-27T22:21:15.792Z,96.20
2018-09-27T22:23:42.100Z,96.10
2018-09-27T22:26:08.423Z,96.27
2018-09-27T22:28:34.738Z,96.17
2018-09-27T22:31:01.110Z,96.13
2018-09-27T22:33:27.428Z,96.25
2018-09-27T22:35:53.739Z,96.42
2018-09-27T22:38:20.058Z,96.35
2018-09-27T22:40:46.371Z,96.38
2018-09-27T22:43:12.761Z,96.52
2018-09-27T22:45:39.042Z,96.59
2018-09-27T22:48:05.353Z,96.74
2018-09-27T22:50:31.680Z,96.78
2018-09-27T22:52:57.997Z,96.80
2018-09-27T22:55:24.322Z,96.78
2018-09-27T22:57:50.643Z,96.84
2018-09-27T23:00:16.982Z,96.93
2018-09-27T23:02:43.264Z,97.08
2018-09-27T23:05:09.589Z,97.23
2018-09-27T23:07:35.930Z,97.09
2018-09-27T23:10:02.285Z,97.19
2018-09-27T23:12:28.602Z,97.32
2018-09-27T23:14:54.955Z,97.35
2018-09-27T23:17:21.310Z,97.43
2018-09-27T23:19:47.624Z,97.45
2018-09-27T23:22:13.935Z,97.56
2018-09-27T23:24:40.262Z,97.54
2018-09-27T23:27:06.574Z,97.56
2018-09-27T23:29:32.893Z,97.72
2018-09-27T23:31:59.207Z,97.96
2018-09-27T23:34:25.520Z,97.92
2018-09-27T23:36:51.837Z,98.09
2018-09-27T23:39:18.158Z,98.17
2018-09-27T23:41:44.469Z,97.94
2018-09-27T23:44:10.802Z,98.17
2018-09-27T23:46:37.113Z,98.29
2018-09-27T23:49:03.430Z,98.54
2018-09-27T23:51:29.740Z,98.74
2018-09-27T23:53:56.050Z,98.80
2018-09-27T23:56:22.365Z,98.89
2018-09-27T23:58:48.686Z,98.94
